Terminal Aerodrome Forecast
Issued by NWS

Home | Current Version | Previous Version | Text Only | Print | Product List | Glossary On
Versions: 1 2 3 4 5 6 7 8 9 10 11 12 13 14
000
FTUS45 KTFX 242339
TAFCTB
TAF
KCTB 242339Z 2500/2524 26014G25KT P6SM SCT070 BKN120
     FM250200 27012KT P6SM SCT080 BKN150
     FM251800 35010G17KT P6SM SCT060 BKN100=

USA.gov is the U.S. government's official web portal to all federal, state and local government web resources and services.